Time;durP1;ratioP1;P1;durP2;ratioP2;P2;SDS_P1;SDS_P2;PMS_P1;PMS_P2;Temp;Humidity;BMP_temperature;BMP_pressure;BME280_temperature;BME280_humidity;BME280_pressure;Samples;Min_cycle;Max_cycle;Signal;HPM_P1;HPM_P2
2021/04/18 00:00:17;;;;;;;68.33;28.70;;;7.70;99.90;;;;;;4319455;33;20200;-81
2021/04/18 00:02:48;;;;;;;72.33;28.17;;;7.70;99.90;;;;;;4317628;33;20164;-82
2021/04/18 00:05:23;;;;;;;71.63;28.37;;;7.70;99.90;;;;;;4319564;33;20391;-82
2021/04/18 00:07:50;;;;;;;77.30;29.37;;;7.70;99.90;;;;;;4319986;33;20168;-82
2021/04/18 00:10:18;;;;;;;80.63;31.73;;;7.70;99.90;;;;;;4322130;33;20168;-87
2021/04/18 00:12:45;;;;;;;80.23;31.57;;;7.70;99.90;;;;;;4320863;33;20162;-86
2021/04/18 00:15:14;;;;;;;82.10;30.63;;;7.70;99.90;;;;;;4318916;33;20370;-84
2021/04/18 00:17:40;;;;;;;80.03;30.50;;;7.70;99.90;;;;;;4320651;33;20149;-84
2021/04/18 00:20:12;;;;;;;82.50;30.37;;;7.70;99.90;;;;;;4320720;33;20202;-84
2021/04/18 00:22:39;;;;;;;81.70;29.57;;;7.70;99.90;;;;;;4321304;33;20166;-87
2021/04/18 00:25:07;;;;;;;85.33;29.70;;;7.70;99.90;;;;;;4319942;33;20231;-85
2021/04/18 00:27:33;;;;;;;75.73;27.20;;;7.70;99.90;;;;;;4319329;33;20453;-84
2021/04/18 00:30:00;;;;;;;86.63;29.70;;;7.70;99.90;;;;;;4319267;33;20193;-84
2021/04/18 00:32:27;;;;;;;80.17;29.00;;;7.70;99.90;;;;;;4320439;33;20174;-85
2021/04/18 00:34:53;;;;;;;74.03;26.47;;;7.70;99.90;;;;;;4319779;33;20205;-85
2021/04/18 00:37:20;;;;;;;77.33;26.03;;;7.70;99.90;;;;;;4319271;33;20169;-85
2021/04/18 00:39:46;;;;;;;89.27;28.73;;;7.70;99.90;;;;;;4320099;33;20432;-86
2021/04/18 00:42:15;;;;;;;84.30;28.37;;;7.70;99.90;;;;;;4319844;33;20483;-87
2021/04/18 00:44:42;;;;;;;82.87;27.40;;;7.80;99.90;;;;;;4319739;33;20235;-85
2021/04/18 00:47:09;;;;;;;79.40;26.87;;;7.70;99.90;;;;;;4319718;33;20191;-86
2021/04/18 00:49:36;;;;;;;78.50;27.93;;;7.70;99.90;;;;;;4319702;33;20184;-86
2021/04/18 00:52:04;;;;;;;75.87;27.50;;;7.70;99.90;;;;;;4319618;33;20151;-86
2021/04/18 00:54:30;;;;;;;80.07;28.50;;;7.70;99.90;;;;;;4320208;33;20163;-84
2021/04/18 00:56:57;;;;;;;81.10;29.90;;;7.70;99.90;;;;;;4319670;33;20146;-85
2021/04/18 00:59:23;;;;;;;81.20;29.30;;;7.70;99.90;;;;;;4320054;33;20467;-83
2021/04/18 01:01:50;;;;;;;89.07;29.73;;;7.80;99.90;;;;;;4319447;33;20149;-84
2021/04/18 01:04:17;;;;;;;88.47;28.10;;;7.80;99.90;;;;;;4318442;33;20161;-86
2021/04/18 01:06:44;;;;;;;85.17;29.17;;;7.70;99.90;;;;;;4318535;33;20196;-78
2021/04/18 01:09:10;;;;;;;79.37;29.00;;;7.70;99.90;;;;;;4321180;33;20168;-79
2021/04/18 01:11:37;;;;;;;77.20;27.70;;;7.70;99.90;;;;;;4319936;33;20171;-79
2021/04/18 01:14:04;;;;;;;80.07;29.00;;;7.70;99.90;;;;;;4319507;33;20228;-78
2021/04/18 01:16:30;;;;;;;69.90;27.10;;;7.70;99.90;;;;;;4322716;33;20159;-79
2021/04/18 01:18:56;;;;;;;61.80;25.07;;;7.70;99.90;;;;;;4321718;33;20186;-77
2021/04/18 01:21:23;;;;;;;63.10;24.70;;;7.60;99.90;;;;;;4322033;33;20195;-77
2021/04/18 01:23:50;;;;;;;63.13;25.50;;;7.60;99.90;;;;;;4323446;33;20171;-77
2021/04/18 01:26:17;;;;;;;65.67;26.10;;;7.60;99.90;;;;;;4321613;33;20413;-77
2021/04/18 01:28:45;;;;;;;66.10;27.00;;;7.60;99.90;;;;;;4321674;33;20162;-76
2021/04/18 01:31:12;;;;;;;69.73;26.20;;;7.60;99.90;;;;;;4321922;33;20196;-76
2021/04/18 01:33:38;;;;;;;76.20;28.50;;;7.60;99.90;;;;;;4321385;33;20181;-77
2021/04/18 01:36:07;;;;;;;68.33;27.50;;;7.60;99.90;;;;;;4321942;33;20189;-76
2021/04/18 01:38:34;;;;;;;72.67;26.30;;;7.60;99.90;;;;;;4321805;33;20418;-76
2021/04/18 01:41:02;;;;;;;75.17;26.93;;;7.60;99.90;;;;;;4322780;33;20149;-77
2021/04/18 01:43:28;;;;;;;74.07;28.07;;;7.60;99.90;;;;;;4322048;33;20207;-77
2021/04/18 01:45:55;;;;;;;76.57;28.60;;;7.60;99.90;;;;;;4321696;33;20151;-78
2021/04/18 01:48:21;;;;;;;69.10;28.20;;;7.50;99.90;;;;;;4321874;33;20169;-78
2021/04/18 01:50:50;;;;;;;70.73;27.87;;;7.30;99.90;;;;;;4321909;33;20496;-79
2021/04/18 01:53:17;;;;;;;73.80;28.37;;;7.40;99.90;;;;;;4321864;33;20506;-79
2021/04/18 01:55:45;;;;;;;68.67;25.83;;;7.40;99.90;;;;;;4320219;33;20478;-79
2021/04/18 01:58:12;;;;;;;73.83;28.33;;;7.40;99.90;;;;;;4322485;33;20153;-78
2021/04/18 02:00:38;;;;;;;67.03;26.87;;;7.40;99.90;;;;;;4321569;33;20350;-78
2021/04/18 02:03:05;;;;;;;72.43;27.13;;;7.40;99.90;;;;;;4320987;33;20149;-78
2021/04/18 02:05:34;;;;;;;73.33;27.57;;;7.50;99.90;;;;;;4320437;33;20157;-79
2021/04/18 02:08:01;;;;;;;69.03;26.07;;;7.50;99.90;;;;;;4321898;33;20172;-78
2021/04/18 02:10:27;;;;;;;73.33;27.87;;;7.40;99.90;;;;;;4320763;33;20238;-78
2021/04/18 02:12:54;;;;;;;73.43;27.00;;;7.40;99.90;;;;;;4321555;33;20146;-78
2021/04/18 02:15:21;;;;;;;70.67;27.00;;;7.40;99.90;;;;;;4320866;33;20210;-78
2021/04/18 02:17:47;;;;;;;74.53;26.80;;;7.50;99.90;;;;;;4322579;33;20153;-78
2021/04/18 02:20:16;;;;;;;73.60;26.73;;;7.50;99.90;;;;;;4321221;33;20168;-78
2021/04/18 02:22:44;;;;;;;74.97;26.93;;;7.50;99.90;;;;;;4321144;33;20176;-78
2021/04/18 02:25:12;;;;;;;78.67;27.63;;;7.50;99.90;;;;;;4321209;33;20190;-78
2021/04/18 02:27:40;;;;;;;75.63;26.20;;;7.50;99.90;;;;;;4321180;33;20393;-78
2021/04/18 02:30:08;;;;;;;76.87;27.30;;;7.50;99.90;;;;;;4321122;33;20199;-78
2021/04/18 02:32:35;;;;;;;78.07;26.73;;;7.50;99.90;;;;;;4321107;33;20211;-78
2021/04/18 02:35:04;;;;;;;78.43;27.23;;;7.50;99.90;;;;;;4322499;33;20145;-78
2021/04/18 02:37:31;;;;;;;77.10;27.87;;;7.50;99.90;;;;;;4321955;33;20149;-78
2021/04/18 02:39:57;;;;;;;83.13;28.73;;;7.50;99.90;;;;;;4320906;33;20173;-78
2021/04/18 02:42:24;;;;;;;94.37;28.17;;;7.40;99.90;;;;;;4320926;33;20161;-77
2021/04/18 02:44:51;;;;;;;83.80;29.10;;;7.30;99.90;;;;;;4321765;33;20520;-78
2021/04/18 02:47:18;;;;;;;75.40;26.33;;;7.30;99.90;;;;;;4320971;33;20244;-77
2021/04/18 02:49:45;;;;;;;75.03;26.00;;;7.30;99.90;;;;;;4321210;33;20199;-78
2021/04/18 02:52:11;;;;;;;69.70;25.10;;;7.30;99.90;;;;;;4320852;33;20220;-78
2021/04/18 02:54:38;;;;;;;69.40;23.60;;;7.20;99.90;;;;;;4320685;33;20207;-78
2021/04/18 02:57:05;;;;;;;65.90;24.20;;;7.20;99.90;;;;;;4320735;33;20401;-78
2021/04/18 02:59:32;;;;;;;67.80;24.20;;;7.20;99.90;;;;;;4320830;33;20150;-79
2021/04/18 03:01:58;;;;;;;70.93;25.23;;;7.20;99.90;;;;;;4321622;33;20176;-78
2021/04/18 03:04:25;;;;;;;131.60;27.90;;;7.20;99.90;;;;;;4320622;33;20159;-77
2021/04/18 03:06:52;;;;;;;74.23;26.07;;;7.20;99.90;;;;;;4320674;33;20154;-78
2021/04/18 03:09:18;;;;;;;72.40;24.87;;;7.10;99.90;;;;;;4321105;33;20223;-78
2021/04/18 03:11:45;;;;;;;65.37;24.77;;;7.10;99.90;;;;;;4320759;33;20202;-78
2021/04/18 03:14:11;;;;;;;65.00;23.37;;;7.00;99.90;;;;;;4321447;33;20482;-78
2021/04/18 03:16:38;;;;;;;77.30;25.70;;;7.00;99.90;;;;;;4320533;33;20145;-78
2021/04/18 03:19:06;;;;;;;75.00;25.90;;;7.00;99.90;;;;;;4320439;33;20244;-78
2021/04/18 03:21:33;;;;;;;71.27;26.50;;;7.00;99.90;;;;;;4320422;33;20203;-79
2021/04/18 03:23:59;;;;;;;72.47;25.57;;;7.00;99.90;;;;;;4320177;33;20173;-77
2021/04/18 03:26:27;;;;;;;78.80;25.57;;;7.00;99.90;;;;;;4320464;33;20186;-77
2021/04/18 03:28:53;;;;;;;72.67;25.57;;;7.00;99.90;;;;;;4320315;33;20166;-77
2021/04/18 03:31:20;;;;;;;72.70;25.37;;;7.00;99.90;;;;;;4320344;33;20176;-76
2021/04/18 03:33:47;;;;;;;64.90;23.30;;;7.10;99.90;;;;;;4320370;33;20182;-78
2021/04/18 03:36:13;;;;;;;63.83;23.23;;;7.00;99.90;;;;;;4319758;33;20177;-78
2021/04/18 03:38:40;;;;;;;63.13;22.10;;;7.10;99.90;;;;;;4320439;33;20160;-77
2021/04/18 03:41:07;;;;;;;69.53;23.30;;;7.00;99.90;;;;;;4320660;33;20185;-78
2021/04/18 03:43:33;;;;;;;56.20;20.70;;;7.00;99.90;;;;;;4320080;33;20201;-78
2021/04/18 03:46:01;;;;;;;60.90;22.97;;;7.00;99.90;;;;;;4320766;33;20179;-78
2021/04/18 03:48:28;;;;;;;57.90;20.10;;;7.00;99.90;;;;;;4319595;33;20173;-77
2021/04/18 03:50:55;;;;;;;52.93;20.47;;;7.00;99.90;;;;;;4319686;33;20175;-78
2021/04/18 03:53:22;;;;;;;54.20;21.07;;;7.00;99.90;;;;;;4319856;33;20205;-78
2021/04/18 03:55:48;;;;;;;54.63;20.70;;;7.00;99.90;;;;;;4319096;33;20146;-78
2021/04/18 03:58:15;;;;;;;58.17;21.70;;;7.00;99.90;;;;;;4319966;33;20203;-78
2021/04/18 04:00:41;;;;;;;53.10;20.13;;;7.00;99.90;;;;;;4320283;33;20554;-77
2021/04/18 04:03:08;;;;;;;49.80;19.83;;;7.00;99.90;;;;;;4320045;33;20200;-78
2021/04/18 04:05:35;;;;;;;56.33;19.83;;;7.00;99.90;;;;;;4320445;33;20353;-78
2021/04/18 04:08:02;;;;;;;60.77;21.10;;;7.00;99.90;;;;;;4319923;33;20152;-78
2021/04/18 04:10:28;;;;;;;61.40;21.60;;;7.00;99.90;;;;;;4320381;33;20157;-78
2021/04/18 04:12:55;;;;;;;64.70;21.97;;;7.00;99.90;;;;;;4320135;33;20198;-76
2021/04/18 04:15:21;;;;;;;62.03;21.90;;;7.00;99.90;;;;;;4318365;33;20158;-80
2021/04/18 04:17:48;;;;;;;66.80;22.37;;;7.10;99.90;;;;;;4318712;33;20494;-80
2021/04/18 04:20:15;;;;;;;67.57;21.83;;;7.00;99.90;;;;;;4318694;33;20167;-80
2021/04/18 04:22:43;;;;;;;60.97;21.17;;;7.00;99.90;;;;;;4318044;33;20157;-80
2021/04/18 04:25:11;;;;;;;62.90;21.70;;;7.00;99.90;;;;;;4318064;33;20186;-80
2021/04/18 04:27:38;;;;;;;61.77;20.63;;;7.10;99.90;;;;;;4318097;33;20397;-80
2021/04/18 04:30:07;;;;;;;62.77;21.77;;;7.10;99.90;;;;;;4316855;33;20166;-80
2021/04/18 04:32:34;;;;;;;64.03;21.97;;;7.10;99.90;;;;;;4319589;33;20161;-80
2021/04/18 04:35:00;;;;;;;60.00;21.40;;;7.10;99.90;;;;;;4320040;33;20151;-80
2021/04/18 04:37:27;;;;;;;63.00;22.03;;;7.10;99.90;;;;;;4320270;33;20456;-79
2021/04/18 04:39:54;;;;;;;60.57;21.53;;;7.10;99.90;;;;;;4319227;33;20167;-79
2021/04/18 04:42:20;;;;;;;61.33;21.63;;;7.20;99.90;;;;;;4320689;33;20477;-79
2021/04/18 04:44:47;;;;;;;65.37;22.63;;;7.30;99.90;;;;;;4320612;33;20226;-79
2021/04/18 04:47:13;;;;;;;60.37;22.13;;;7.30;99.90;;;;;;4319743;33;20215;-79
2021/04/18 04:49:40;;;;;;;62.47;21.33;;;7.30;99.90;;;;;;4320799;33;20422;-79
2021/04/18 04:52:09;;;;;;;58.60;20.87;;;7.40;99.90;;;;;;4322535;33;20182;-79
2021/04/18 04:54:37;;;;;;;52.87;20.37;;;7.40;99.90;;;;;;4322334;33;20574;-79
2021/04/18 04:57:04;;;;;;;60.20;20.40;;;7.40;99.90;;;;;;4322435;33;20163;-79
2021/04/18 04:59:31;;;;;;;55.60;20.50;;;7.40;99.90;;;;;;4322360;33;20153;-80
2021/04/18 05:01:58;;;;;;;56.47;20.07;;;7.40;99.90;;;;;;4323202;33;20507;-80
2021/04/18 05:04:25;;;;;;;53.43;20.43;;;7.30;99.90;;;;;;4321803;33;20167;-80
2021/04/18 05:06:52;;;;;;;56.20;20.43;;;7.30;99.90;;;;;;4321933;33;20483;-80
2021/04/18 05:09:19;;;;;;;54.50;20.30;;;7.40;99.90;;;;;;4322195;33;20162;-79
2021/04/18 05:11:45;;;;;;;51.93;19.33;;;7.50;99.90;;;;;;4323645;33;20352;-79
2021/04/18 05:14:12;;;;;;;58.33;21.03;;;7.50;99.90;;;;;;4322144;33;20219;-79
2021/04/18 05:16:38;;;;;;;53.37;19.63;;;7.60;99.90;;;;;;4322477;33;20176;-79
2021/04/18 05:19:05;;;;;;;55.90;20.50;;;7.60;99.90;;;;;;4322106;33;20176;-79
2021/04/18 05:21:32;;;;;;;54.00;19.77;;;7.60;99.90;;;;;;4323256;33;20161;-79
2021/04/18 05:23:59;;;;;;;48.67;18.73;;;7.70;99.90;;;;;;4323502;33;20392;-79
2021/04/18 05:26:26;;;;;;;51.53;18.83;;;7.80;99.90;;;;;;4321768;33;20537;-79
2021/04/18 05:28:53;;;;;;;48.13;19.40;;;7.80;99.90;;;;;;4321937;33;20524;-79
2021/04/18 05:31:21;;;;;;;48.50;18.67;;;7.80;99.90;;;;;;4322477;33;20139;-79
2021/04/18 05:33:47;;;;;;;44.30;18.03;;;7.70;99.90;;;;;;4321976;33;20155;-79
2021/04/18 05:36:14;;;;;;;46.20;17.80;;;7.70;99.90;;;;;;4321880;33;20150;-79
2021/04/18 05:38:41;;;;;;;38.43;16.67;;;7.80;99.90;;;;;;4322142;33;20207;-80
2021/04/18 05:41:08;;;;;;;40.53;16.27;;;7.80;99.90;;;;;;4322109;33;20447;-80
2021/04/18 05:43:35;;;;;;;43.00;16.67;;;7.80;99.90;;;;;;4322087;33;20189;-80
2021/04/18 05:46:02;;;;;;;37.37;17.30;;;7.90;99.90;;;;;;4321799;33;20471;-80
2021/04/18 05:48:29;;;;;;;39.90;16.87;;;7.90;99.90;;;;;;4321147;33;20165;-80
2021/04/18 05:50:56;;;;;;;43.53;17.40;;;7.90;99.90;;;;;;4321354;33;20174;-81
2021/04/18 05:53:22;;;;;;;43.87;17.87;;;8.00;99.90;;;;;;4321454;33;20171;-79
2021/04/18 05:55:51;;;;;;;47.93;18.80;;;8.00;99.90;;;;;;4321580;33;20190;-80
2021/04/18 05:58:18;;;;;;;48.50;19.33;;;7.80;99.90;;;;;;4322430;33;20182;-80
2021/04/18 06:00:44;;;;;;;48.63;20.00;;;7.90;99.90;;;;;;4321931;33;20160;-80
2021/04/18 06:03:11;;;;;;;51.17;19.07;;;7.90;99.90;;;;;;4321245;33;20171;-80
2021/04/18 06:05:38;;;;;;;50.47;18.73;;;7.90;99.90;;;;;;4321445;33;20155;-80
2021/04/18 06:08:05;;;;;;;49.20;19.07;;;7.90;99.90;;;;;;4321402;33;20161;-80
2021/04/18 06:10:32;;;;;;;47.00;19.33;;;8.00;99.90;;;;;;4322201;33;20371;-79
2021/04/18 06:12:59;;;;;;;48.80;19.90;;;8.00;99.90;;;;;;4321175;33;20153;-79
2021/04/18 06:15:27;;;;;;;43.13;18.23;;;8.10;99.90;;;;;;4320544;33;20150;-80
2021/04/18 06:17:54;;;;;;;44.40;17.93;;;8.10;99.90;;;;;;4321354;33;20201;-80
2021/04/18 06:20:21;;;;;;;48.77;18.10;;;8.10;99.90;;;;;;4320206;33;20179;-80
2021/04/18 06:22:47;;;;;;;41.97;17.37;;;8.10;99.90;;;;;;4321280;33;20207;-80
2021/04/18 06:25:15;;;;;;;41.27;16.40;;;8.20;99.90;;;;;;4321158;33;20156;-80
2021/04/18 06:27:43;;;;;;;44.17;17.77;;;8.20;99.90;;;;;;4321121;33;20168;-81
2021/04/18 06:30:10;;;;;;;39.63;16.80;;;8.30;99.90;;;;;;4319791;33;20430;-81
2021/04/18 06:32:37;;;;;;;39.17;16.97;;;8.30;99.90;;;;;;4319576;33;20179;-81
2021/04/18 06:35:06;;;;;;;40.17;17.63;;;8.40;99.90;;;;;;4321735;33;20337;-82
2021/04/18 06:37:33;;;;;;;38.67;18.00;;;8.40;99.90;;;;;;4321377;33;20182;-82
2021/04/18 06:40:00;;;;;;;39.50;17.70;;;8.50;99.90;;;;;;4320781;33;20188;-82
2021/04/18 06:42:29;;;;;;;39.70;17.37;;;8.40;99.90;;;;;;4321715;33;20222;-82
2021/04/18 06:44:57;;;;;;;43.07;18.17;;;8.40;99.90;;;;;;4321019;33;20182;-81
2021/04/18 06:47:24;;;;;;;41.60;17.37;;;8.50;99.90;;;;;;4321149;33;20146;-82
2021/04/18 06:49:52;;;;;;;42.00;17.50;;;8.50;99.90;;;;;;4320789;33;20208;-82
2021/04/18 06:52:19;;;;;;;41.33;17.97;;;8.60;99.90;;;;;;4320799;33;20157;-82
2021/04/18 06:54:45;;;;;;;43.43;18.40;;;8.70;99.90;;;;;;4320872;33;20250;-82
2021/04/18 06:57:12;;;;;;;42.27;18.03;;;8.70;99.90;;;;;;4320739;33;20146;-82
2021/04/18 06:59:38;;;;;;;41.47;17.03;;;8.80;99.90;;;;;;4321435;33;20142;-82
2021/04/18 07:02:05;;;;;;;42.00;18.13;;;8.80;99.90;;;;;;4322063;33;20156;-82
2021/04/18 07:04:34;;;;;;;42.10;17.43;;;8.90;99.90;;;;;;4320503;33;20168;-81
2021/04/18 07:07:02;;;;;;;41.70;17.60;;;8.80;99.90;;;;;;4320800;33;20157;-81
2021/04/18 07:09:28;;;;;;;37.87;16.77;;;8.90;99.90;;;;;;4320024;33;20161;-81
2021/04/18 07:12:01;;;;;;;38.43;16.80;;;9.00;99.90;;;;;;4319980;33;20195;-81
2021/04/18 07:14:36;;;;;;;34.53;16.50;;;8.90;99.90;;;;;;4320116;33;20371;-81
2021/04/18 07:17:10;;;;;;;37.43;16.70;;;9.10;99.90;;;;;;4321102;33;20186;-81
2021/04/18 07:19:46;;;;;;;35.63;16.90;;;9.20;99.90;;;;;;4320023;33;20527;-82
2021/04/18 07:22:19;;;;;;;34.20;16.47;;;9.40;99.90;;;;;;4320767;33;20178;-82
2021/04/18 07:24:57;;;;;;;32.40;15.73;;;9.40;99.90;;;;;;4319824;33;20157;-82
2021/04/18 07:27:24;;;;;;;37.40;16.63;;;9.50;99.90;;;;;;4320388;33;20157;-81
2021/04/18 07:29:57;;;;;;;32.37;16.13;;;9.60;99.90;;;;;;4320124;33;20197;-81
2021/04/18 07:32:28;;;;;;;35.43;16.50;;;9.60;99.90;;;;;;4320011;33;20438;-81
2021/04/18 07:34:55;;;;;;;32.70;15.73;;;9.70;99.90;;;;;;4320167;33;20145;-80
2021/04/18 07:37:25;;;;;;;31.80;15.17;;;9.80;99.90;;;;;;4320213;33;20157;-80
2021/04/18 07:40:00;;;;;;;31.80;15.93;;;9.90;99.90;;;;;;4321122;33;20207;-80
2021/04/18 07:42:41;;;;;;;32.17;14.70;;;10.00;99.90;;;;;;4319952;33;20156;-80
2021/04/18 07:45:09;;;;;;;32.50;15.40;;;9.90;99.90;;;;;;4319540;33;20168;-80
2021/04/18 07:47:39;;;;;;;33.30;15.60;;;9.90;99.90;;;;;;4319775;33;20157;-79
2021/04/18 07:50:09;;;;;;;28.87;14.77;;;9.90;99.90;;;;;;4319957;33;20160;-80
2021/04/18 07:52:40;;;;;;;28.30;14.80;;;10.00;99.90;;;;;;4319703;33;20156;-79
2021/04/18 07:55:08;;;;;;;27.60;14.57;;;10.10;99.90;;;;;;4321438;33;20203;-80
2021/04/18 07:57:35;;;;;;;28.80;14.00;;;9.90;99.90;;;;;;4319617;33;20208;-80
2021/04/18 08:00:03;;;;;;;31.07;15.33;;;9.80;99.90;;;;;;4319133;33;20168;-80
2021/04/18 08:02:30;;;;;;;29.57;14.93;;;9.90;99.90;;;;;;4319577;33;20230;-80
2021/04/18 08:04:58;;;;;;;29.33;14.43;;;10.10;99.90;;;;;;4319270;33;20192;-80
2021/04/18 08:07:25;;;;;;;30.60;15.37;;;10.30;99.90;;;;;;4320032;33;20411;-80
2021/04/18 08:10:24;;;;;;;33.63;15.97;;;10.30;99.90;;;;;;4320834;33;20169;-80
2021/04/18 08:13:24;;;;;;;33.73;15.03;;;10.40;99.90;;;;;;4289218;33;20174;-80
2021/04/18 08:15:57;;;;;;;30.33;15.53;;;10.20;99.90;;;;;;4274416;33;20184;-79
2021/04/18 08:18:31;;;;;;;29.40;14.57;;;10.40;99.90;;;;;;4275980;33;20249;-79
2021/04/18 08:21:01;;;;;;;30.80;15.27;;;10.60;99.90;;;;;;4274274;33;20499;-79
2021/04/18 08:23:37;;;;;;;28.23;14.73;;;10.70;99.90;;;;;;4275090;33;20203;-79
2021/04/18 08:26:04;;;;;;;31.43;14.97;;;10.90;99.90;;;;;;4277751;33;20513;-79
2021/04/18 08:28:55;;;;;;;27.70;13.53;;;11.00;99.90;;;;;;4277437;33;20205;-79
2021/04/18 08:31:29;;;;;;;23.50;12.93;;;10.90;99.90;;;;;;4277711;33;20162;-78
2021/04/18 08:33:58;;;;;;;29.13;14.50;;;11.20;99.90;;;;;;4278441;33;20358;-78
2021/04/18 08:36:27;;;;;;;28.40;14.53;;;11.30;99.90;;;;;;4278875;33;20178;-78
2021/04/18 08:38:59;;;;;;;27.77;14.57;;;11.60;99.90;;;;;;4277066;33;20193;-79
2021/04/18 08:41:39;;;;;;;29.10;14.50;;;12.30;99.90;;;;;;4278290;33;20159;-79
2021/04/18 08:44:26;;;;;;;28.57;14.93;;;12.60;99.90;;;;;;4277050;33;20150;-79
2021/04/18 08:46:57;;;;;;;27.93;14.17;;;12.70;99.90;;;;;;4277070;33;20360;-79
2021/04/18 08:49:26;;;;;;;27.13;14.30;;;12.90;99.90;;;;;;4284720;33;20221;-79
2021/04/18 08:51:54;;;;;;;28.90;14.60;;;12.90;99.90;;;;;;4312634;33;20219;-80
2021/04/18 08:54:25;;;;;;;23.73;13.30;;;12.80;99.90;;;;;;4321167;33;20482;-80
2021/04/18 08:56:56;;;;;;;26.67;14.20;;;12.70;99.90;;;;;;4322161;33;20187;-80
2021/04/18 08:59:25;;;;;;;25.33;14.10;;;12.70;99.90;;;;;;4323566;33;20146;-79
2021/04/18 09:01:54;;;;;;;27.30;14.53;;;12.70;99.90;;;;;;4322435;33;20149;-79
2021/04/18 09:04:22;;;;;;;26.67;14.33;;;12.60;99.90;;;;;;4321773;33;20153;-79
2021/04/18 09:06:50;;;;;;;24.93;14.20;;;12.60;99.90;;;;;;4322332;33;20156;-79
2021/04/18 09:09:18;;;;;;;27.07;14.00;;;12.70;99.90;;;;;;4322147;33;20221;-79
2021/04/18 09:11:49;;;;;;;26.03;13.97;;;12.70;99.90;;;;;;4322211;33;20184;-79
2021/04/18 09:14:37;;;;;;;22.70;12.77;;;13.00;99.90;;;;;;4322712;33;20153;-79
2021/04/18 09:17:30;;;;;;;23.07;13.30;;;12.80;99.90;;;;;;4322090;33;20468;-79
2021/04/18 09:19:58;;;;;;;26.77;13.97;;;12.90;99.90;;;;;;4322638;33;20205;-79
2021/04/18 09:22:28;;;;;;;25.30;13.27;;;12.90;99.90;;;;;;4322086;33;20211;-79
2021/04/18 09:25:07;;;;;;;21.60;13.30;;;13.00;99.90;;;;;;4321036;33;20196;-79
2021/04/18 09:27:42;;;;;;;24.67;14.83;;;13.20;99.90;;;;;;4322139;33;20152;-76
2021/04/18 09:30:11;;;;;;;24.20;13.97;;;13.20;99.90;;;;;;4322813;33;20207;-76
2021/04/18 09:32:39;;;;;;;24.63;13.87;;;13.40;99.90;;;;;;4321799;33;20240;-76
2021/04/18 09:35:08;;;;;;;21.93;13.63;;;13.50;99.90;;;;;;4321640;33;20423;-75
2021/04/18 09:37:57;;;;;;;23.13;13.67;;;13.60;99.90;;;;;;4321329;33;20165;-76
2021/04/18 09:40:28;;;;;;;24.70;13.60;;;13.70;99.90;;;;;;4321193;33;20149;-76
2021/04/18 09:42:57;;;;;;;23.50;14.23;;;13.70;99.90;;;;;;4323094;33;20149;-76
2021/04/18 09:45:28;;;;;;;23.37;14.03;;;13.90;99.90;;;;;;4321051;33;20515;-76
2021/04/18 09:48:11;;;;;;;24.40;14.40;;;14.00;99.90;;;;;;4322946;33;20151;-76
2021/04/18 09:50:38;;;;;;;24.77;14.70;;;14.40;99.90;;;;;;4321891;33;20418;-76
2021/04/18 09:53:15;;;;;;;22.67;14.50;;;14.50;99.90;;;;;;4321354;33;20165;-77
2021/04/18 09:56:03;;;;;;;23.00;13.73;;;14.80;99.40;;;;;;4323147;33;20471;-76
2021/04/18 09:58:40;;;;;;;21.93;14.00;;;15.10;98.60;;;;;;4321945;33;20414;-77
2021/04/18 10:01:28;;;;;;;20.27;13.17;;;15.80;98.00;;;;;;4322565;33;20199;-78
2021/04/18 10:03:55;;;;;;;20.10;12.13;;;16.70;94.00;;;;;;4319039;33;20220;-79
2021/04/18 10:06:23;;;;;;;20.50;13.17;;;17.40;90.80;;;;;;4322658;33;20157;-79
2021/04/18 10:08:57;;;;;;;20.67;12.23;;;17.70;87.00;;;;;;4321645;33;20275;-78
2021/04/18 10:11:24;;;;;;;20.00;11.93;;;18.30;82.40;;;;;;4322976;33;20175;-78
2021/04/18 10:13:58;;;;;;;20.50;12.40;;;18.40;78.80;;;;;;4322680;33;20153;-77
2021/04/18 10:16:36;;;;;;;17.83;11.70;;;18.90;76.90;;;;;;4321762;33;20145;-77
2021/04/18 10:19:18;;;;;;;16.33;10.63;;;19.50;74.90;;;;;;4321167;33;20195;-77
2021/04/18 10:22:08;;;;;;;16.60;10.90;;;20.00;69.80;;;;;;4319147;33;20209;-78
2021/04/18 10:24:36;;;;;;;15.90;10.10;;;20.40;68.40;;;;;;4321191;33;20216;-78
2021/04/18 10:27:05;;;;;;;13.80;9.50;;;20.80;65.00;;;;;;4322042;33;20172;-76
2021/04/18 10:29:33;;;;;;;17.33;10.87;;;21.00;63.10;;;;;;4320450;33;20153;-75
2021/04/18 10:31:59;;;;;;;15.70;10.13;;;21.20;61.10;;;;;;4311814;33;20187;-77
2021/04/18 10:34:27;;;;;;;15.50;10.57;;;21.40;59.90;;;;;;4320475;33;20477;-77
2021/04/18 10:36:54;;;;;;;15.83;10.43;;;21.70;59.90;;;;;;4320445;33;20224;-78
2021/04/18 10:39:21;;;;;;;14.13;9.90;;;21.90;59.10;;;;;;4320393;33;20195;-78
2021/04/18 10:41:49;;;;;;;14.73;10.07;;;22.10;57.90;;;;;;4320286;33;20492;-78
2021/04/18 10:44:16;;;;;;;15.20;9.57;;;22.20;56.40;;;;;;4313524;33;20571;-77
2021/04/18 10:46:49;;;;;;;15.87;10.30;;;22.10;57.00;;;;;;4320225;33;20227;-78
2021/04/18 10:49:16;;;;;;;14.57;9.87;;;21.80;57.80;;;;;;4320025;33;20184;-78
2021/04/18 10:51:43;;;;;;;13.97;9.90;;;21.20;57.30;;;;;;4320590;33;20224;-76
2021/04/18 10:54:09;;;;;;;13.43;9.73;;;20.40;60.20;;;;;;4320174;33;20508;-76
2021/04/18 10:56:37;;;;;;;14.70;10.10;;;19.50;63.30;;;;;;4321312;33;20495;-77
2021/04/18 10:59:04;;;;;;;15.27;10.07;;;18.90;65.10;;;;;;4319336;33;20179;-76
2021/04/18 11:01:30;;;;;;;16.03;10.60;;;18.60;67.80;;;;;;4319959;33;20311;-76
2021/04/18 11:03:57;;;;;;;14.93;9.53;;;18.30;69.20;;;;;;4320062;33;20200;-77
2021/04/18 11:06:24;;;;;;;13.03;9.13;;;18.40;70.60;;;;;;4320289;33;20195;-75
2021/04/18 11:08:50;;;;;;;13.40;9.20;;;18.80;69.60;;;;;;4318448;33;20207;-75
2021/04/18 11:11:17;;;;;;;13.93;9.03;;;19.40;66.70;;;;;;4315413;33;20243;-81
2021/04/18 11:13:44;;;;;;;12.83;8.70;;;20.10;65.00;;;;;;4318888;33;20500;-81
2021/04/18 11:16:10;;;;;;;12.17;8.37;;;20.40;61.50;;;;;;4317503;33;20219;-81
2021/04/18 11:18:37;;;;;;;11.60;8.00;;;20.40;59.30;;;;;;4319765;33;20251;-79
2021/04/18 11:21:04;;;;;;;11.97;8.57;;;20.60;61.50;;;;;;4317293;33;20388;-80
2021/04/18 11:23:31;;;;;;;11.80;8.33;;;20.70;60.90;;;;;;4318856;33;20200;-80
2021/04/18 11:25:58;;;;;;;11.03;7.70;;;20.60;60.90;;;;;;4320539;33;20207;-80
2021/04/18 11:28:24;;;;;;;11.60;7.70;;;21.20;59.20;;;;;;4319532;33;20201;-80
2021/04/18 11:30:51;;;;;;;10.27;7.17;;;21.90;57.30;;;;;;4319767;33;20225;-80
2021/04/18 11:33:23;;;;;;;9.53;6.47;;;22.40;55.50;;;;;;4320658;33;20200;-80
2021/04/18 11:35:51;;;;;;;8.90;6.27;;;22.90;54.10;;;;;;4319951;33;20196;-80
2021/04/18 11:38:18;;;;;;;7.87;6.17;;;23.30;52.00;;;;;;4319126;33;20204;-80
2021/04/18 11:40:45;;;;;;;8.30;5.97;;;24.00;50.90;;;;;;4320129;33;20465;-80
2021/04/18 11:43:12;;;;;;;6.50;4.95;;;24.00;49.30;;;;;;4319904;33;20397;-81
2021/04/18 11:45:39;;;;;;;5.50;4.23;;;24.00;48.90;;;;;;4319983;33;20389;-79
2021/04/18 11:48:06;;;;;;;5.67;4.40;;;23.50;48.90;;;;;;4319819;33;20224;-81
2021/04/18 11:50:33;;;;;;;6.70;4.73;;;23.60;48.90;;;;;;4321314;33;20174;-78
2021/04/18 11:53:00;;;;;;;6.87;4.90;;;24.10;48.90;;;;;;4319695;33;20169;-79
2021/04/18 11:55:27;;;;;;;7.35;5.05;;;24.80;46.80;;;;;;4321675;33;20161;-80
2021/04/18 11:57:53;;;;;;;6.68;4.75;;;25.20;45.70;;;;;;4319300;33;20165;-80
2021/04/18 12:00:20;;;;;;;6.85;5.18;;;25.20;44.30;;;;;;4319937;33;20200;-80
2021/04/18 12:02:48;;;;;;;7.95;5.57;;;25.60;43.30;;;;;;4319129;33;20149;-79
2021/04/18 12:05:15;;;;;;;7.78;5.43;;;25.40;43.70;;;;;;4320113;33;20149;-80
2021/04/18 12:07:41;;;;;;;8.25;5.45;;;25.90;44.60;;;;;;4319780;33;20402;-80
2021/04/18 12:10:08;;;;;;;7.22;5.00;;;26.10;41.90;;;;;;4319787;33;20233;-80
2021/04/18 12:12:35;;;;;;;6.47;4.90;;;26.70;42.60;;;;;;4321286;33;20180;-80
2021/04/18 12:15:03;;;;;;;5.82;4.78;;;26.80;41.00;;;;;;4319702;33;20513;-79
2021/04/18 12:17:29;;;;;;;7.32;4.87;;;26.60;39.90;;;;;;4321181;33;20137;-78
2021/04/18 12:20:00;;;;;;;6.57;4.85;;;26.00;39.80;;;;;;4320317;33;20146;-79
2021/04/18 12:22:26;;;;;;;7.70;5.15;;;24.60;41.30;;;;;;4321232;33;20192;-78
2021/04/18 12:24:53;;;;;;;7.55;5.43;;;23.60;45.50;;;;;;4321255;33;20153;-78
2021/04/18 12:27:19;;;;;;;6.40;5.12;;;22.90;47.30;;;;;;4320735;33;20187;-79
2021/04/18 12:29:45;;;;;;;7.78;5.50;;;22.60;47.70;;;;;;4320123;33;20476;-78
2021/04/18 12:32:12;;;;;;;7.00;5.30;;;22.00;49.30;;;;;;4319963;33;20188;-78
2021/04/18 12:34:38;;;;;;;8.33;5.67;;;21.60;50.20;;;;;;4319772;33;20200;-79
2021/04/18 12:37:05;;;;;;;7.07;5.17;;;21.40;50.70;;;;;;4319878;33;20199;-79
2021/04/18 12:39:31;;;;;;;6.93;5.17;;;20.90;52.90;;;;;;4319716;33;20226;-80
2021/04/18 12:41:57;;;;;;;8.50;5.50;;;21.10;52.70;;;;;;4319648;33;20500;-78